createdAt,value
2023-01-29T00:01:12.183Z,3.06
2023-01-29T00:03:38.897Z,3.05
2023-01-29T00:06:07.519Z,3.05
2023-01-29T00:08:38.072Z,3.04
2023-01-29T00:11:06.527Z,3.01
2023-01-29T00:13:34.670Z,3.00
2023-01-29T00:16:02.318Z,3.00
2023-01-29T00:18:30.093Z,2.99
2023-01-29T00:20:57.299Z,2.99
2023-01-29T00:23:23.978Z,2.97
2023-01-29T00:25:50.640Z,2.95
2023-01-29T00:28:17.224Z,2.93
2023-01-29T00:30:43.882Z,2.91
2023-01-29T00:33:11.962Z,2.87
2023-01-29T00:35:40.551Z,2.84
2023-01-29T00:38:07.184Z,2.82
2023-01-29T00:40:56.370Z,2.81
2023-01-29T00:43:41.514Z,2.79
2023-01-29T00:46:08.506Z,2.77
2023-01-29T00:48:35.909Z,2.74
2023-01-29T00:51:03.341Z,2.73
2023-01-29T00:53:30.413Z,2.70
2023-01-29T00:55:57.120Z,2.67
2023-01-29T00:58:28.231Z,2.65
2023-01-29T01:00:56.163Z,2.65
2023-01-29T01:03:22.917Z,2.66
2023-01-29T01:05:49.605Z,2.67
2023-01-29T01:08:35.020Z,2.68
2023-01-29T01:11:05.968Z,2.67
2023-01-29T01:17:48.947Z,2.64
2023-01-29T01:20:15.951Z,2.62
2023-01-29T01:22:42.985Z,2.60
2023-01-29T01:25:09.943Z,2.59
2023-01-29T01:27:41.057Z,2.60
2023-01-29T01:30:14.334Z,2.59
2023-01-29T01:32:42.524Z,2.58
2023-01-29T01:35:10.700Z,2.56
2023-01-29T01:37:38.745Z,2.56
2023-01-29T01:40:12.860Z,2.55
2023-01-29T01:42:40.618Z,2.55
2023-01-29T01:45:17.755Z,2.56
2023-01-29T01:47:49.188Z,2.57
2023-01-29T01:50:43.529Z,2.57
2023-01-29T01:53:14.763Z,2.55
2023-01-29T01:55:47.413Z,2.54
2023-01-29T01:58:23.582Z,2.52
2023-01-29T02:00:50.551Z,2.51
2023-01-29T02:03:38.165Z,2.51
2023-01-29T02:06:23.625Z,2.52
2023-01-29T02:09:16.658Z,2.52
2023-01-29T02:11:43.309Z,2.52
2023-01-29T02:14:11.133Z,2.51
2023-01-29T02:16:38.384Z,2.50
2023-01-29T02:19:17.255Z,2.48
2023-01-29T02:22:00.404Z,2.45
2023-01-29T02:25:10.106Z,2.41
2023-01-29T02:27:49.005Z,2.36
2023-01-29T02:30:36.682Z,2.35
2023-01-29T02:33:22.311Z,2.39
2023-01-29T02:36:07.522Z,2.41
2023-01-29T02:39:03.327Z,2.43
2023-01-29T02:42:00.967Z,2.44
2023-01-29T02:44:35.042Z,2.45
2023-01-29T02:47:09.531Z,2.44
2023-01-29T02:49:47.282Z,2.45
2023-01-29T02:52:23.483Z,2.47
2023-01-29T02:54:51.109Z,2.52
2023-01-29T02:57:34.834Z,2.54
2023-01-29T03:00:10.634Z,2.57
2023-01-29T03:02:44.332Z,2.61
2023-01-29T03:05:17.673Z,2.66
2023-01-29T03:07:56.659Z,2.71
2023-01-29T03:10:40.554Z,2.76
2023-01-29T03:13:15.318Z,2.81
2023-01-29T03:15:51.435Z,2.86
2023-01-29T03:18:43.775Z,2.90
2023-01-29T03:21:52.708Z,2.89
2023-01-29T03:24:54.347Z,2.91
2023-01-29T03:27:46.717Z,2.93
2023-01-29T03:30:36.856Z,2.93
2023-01-29T03:33:14.415Z,2.94
2023-01-29T03:35:50.073Z,2.96
2023-01-29T03:38:17.287Z,2.98
2023-01-29T03:40:51.231Z,3.00
2023-01-29T03:43:44.475Z,3.01
2023-01-29T03:46:22.399Z,3.03
2023-01-29T03:48:59.486Z,3.05
2023-01-29T03:51:35.588Z,3.09
2023-01-29T03:54:15.888Z,3.12
2023-01-29T03:56:58.600Z,3.16
2023-01-29T03:59:48.887Z,3.15
2023-01-29T04:03:09.881Z,3.12
2023-01-29T04:05:44.670Z,3.12
2023-01-29T04:08:26.980Z,3.14
2023-01-29T04:10:59.147Z,3.17
2023-01-29T04:13:27.665Z,3.14
2023-01-29T04:15:59.331Z,3.14
2023-01-29T04:18:46.216Z,3.18
2023-01-29T04:21:14.308Z,3.20
2023-01-29T04:23:41.444Z,3.24
2023-01-29T04:26:44.308Z,3.27
2023-01-29T04:29:40.746Z,3.29
2023-01-29T04:32:26.379Z,3.30
2023-01-29T04:35:26.776Z,3.33
2023-01-29T04:38:08.760Z,3.37
2023-01-29T04:40:49.776Z,3.41
2023-01-29T04:43:35.617Z,3.42
2023-01-29T04:46:46.562Z,3.41
2023-01-29T04:49:18.015Z,3.44
2023-01-29T04:52:13.796Z,3.47
2023-01-29T04:54:52.885Z,3.49
2023-01-29T04:57:46.293Z,3.51
2023-01-29T05:00:16.409Z,3.50
2023-01-29T05:02:45.251Z,3.52
2023-01-29T05:05:14.920Z,3.53
2023-01-29T05:07:43.529Z,3.52
2023-01-29T05:10:12.023Z,3.52
2023-01-29T05:12:40.843Z,3.51
2023-01-29T05:15:15.721Z,3.47
2023-01-29T05:17:43.159Z,3.44
2023-01-29T05:20:11.887Z,3.39
2023-01-29T05:22:41.864Z,3.34
2023-01-29T05:25:26.114Z,3.31
2023-01-29T05:28:06.244Z,3.29
2023-01-29T05:30:35.979Z,3.29
2023-01-29T05:33:03.959Z,3.27
2023-01-29T05:35:30.773Z,3.26
2023-01-29T05:37:57.554Z,3.24
2023-01-29T05:40:25.338Z,3.23
2023-01-29T05:42:52.202Z,3.21
2023-01-29T05:45:18.984Z,3.22
2023-01-29T05:47:46.270Z,3.21
2023-01-29T05:50:14.238Z,3.17
2023-01-29T05:52:41.242Z,3.14
2023-01-29T05:55:09.875Z,3.12
2023-01-29T05:57:36.546Z,3.10
2023-01-29T06:00:04.769Z,3.08
2023-01-29T06:02:39.780Z,3.09
2023-01-29T06:05:06.848Z,3.09
2023-01-29T06:07:33.716Z,3.09
2023-01-29T06:10:00.310Z,3.07
2023-01-29T06:12:27.793Z,3.04
2023-01-29T06:14:54.395Z,3.02
2023-01-29T06:17:21.047Z,3.03
2023-01-29T06:19:47.681Z,3.02
2023-01-29T06:22:14.339Z,3.01
2023-01-29T06:24:40.993Z,3.02
2023-01-29T06:27:07.737Z,3.00
2023-01-29T06:29:34.435Z,2.98
2023-01-29T06:32:01.196Z,2.97
2023-01-29T06:34:27.855Z,2.96
2023-01-29T06:36:54.651Z,2.94
2023-01-29T06:39:21.205Z,2.94
2023-01-29T06:41:47.872Z,2.93
2023-01-29T06:44:14.870Z,2.91
2023-01-29T06:46:41.648Z,2.89
2023-01-29T06:49:08.335Z,2.90
2023-01-29T06:51:35.000Z,2.92
2023-01-29T06:54:01.687Z,2.92
2023-01-29T06:56:28.478Z,2.91
2023-01-29T06:58:55.141Z,2.90
2023-01-29T07:01:35.060Z,2.87
2023-01-29T07:04:03.079Z,2.88
2023-01-29T07:06:30.362Z,2.85
2023-01-29T07:08:57.162Z,2.83
2023-01-29T07:11:23.840Z,2.83
2023-01-29T07:13:50.489Z,2.83
2023-01-29T07:16:17.809Z,2.82
2023-01-29T07:18:44.700Z,2.82
2023-01-29T07:21:11.251Z,2.83
2023-01-29T07:23:37.908Z,2.85
2023-01-29T07:26:06.397Z,2.88
2023-01-29T07:28:39.542Z,2.90
2023-01-29T07:35:26.288Z,2.93
2023-01-29T07:37:52.917Z,2.94
2023-01-29T07:40:19.543Z,2.97
2023-01-29T07:42:46.900Z,3.01
2023-01-29T07:45:13.783Z,3.05
2023-01-29T07:47:40.419Z,3.05
2023-01-29T07:50:07.311Z,3.06
2023-01-29T07:52:34.165Z,3.08
2023-01-29T07:55:00.849Z,3.08
2023-01-29T07:57:27.558Z,3.09
2023-01-29T07:59:54.188Z,3.13
2023-01-29T08:02:20.887Z,3.15
2023-01-29T08:04:47.622Z,3.18
2023-01-29T08:07:14.400Z,3.22
2023-01-29T08:09:41.003Z,3.28
2023-01-29T08:12:07.669Z,3.32
2023-01-29T08:14:34.420Z,3.35
2023-01-29T08:17:01.051Z,3.40
2023-01-29T08:19:27.653Z,3.46
2023-01-29T08:21:54.271Z,3.54
2023-01-29T08:24:21.079Z,3.63
2023-01-29T08:26:47.690Z,3.71
2023-01-29T08:29:14.518Z,3.78
2023-01-29T08:31:41.208Z,3.86
2023-01-29T08:34:08.013Z,3.94
2023-01-29T08:36:35.277Z,4.02
2023-01-29T08:39:02.084Z,4.11
2023-01-29T08:45:48.395Z,4.35
2023-01-29T08:48:15.037Z,4.45
2023-01-29T08:50:41.785Z,4.56
2023-01-29T08:53:09.711Z,4.67
2023-01-29T08:55:41.425Z,4.80
2023-01-29T09:02:21.196Z,5.15
2023-01-29T09:04:47.942Z,5.25
2023-01-29T09:07:14.580Z,5.35
2023-01-29T09:09:41.238Z,5.47
2023-01-29T09:12:07.931Z,5.62
2023-01-29T09:14:34.611Z,5.77
2023-01-29T09:17:01.220Z,5.93
2023-01-29T09:19:28.001Z,6.04
2023-01-29T09:21:54.630Z,6.16
2023-01-29T09:24:21.458Z,6.26
2023-01-29T09:26:48.187Z,6.36
2023-01-29T09:29:15.145Z,6.46
2023-01-29T09:31:41.980Z,6.52
2023-01-29T09:38:28.381Z,6.71
2023-01-29T09:41:23.909Z,6.77
2023-01-29T09:44:04.087Z,6.81
2023-01-29T09:46:42.228Z,6.83
2023-01-29T09:49:15.406Z,6.84
2023-01-29T09:55:57.587Z,6.98
2023-01-29T09:58:42.671Z,7.02
2023-01-29T10:01:18.517Z,7.10
2023-01-29T10:03:55.148Z,7.15
2023-01-29T10:06:51.107Z,7.18
2023-01-29T10:09:36.026Z,7.20
2023-01-29T10:12:08.604Z,7.23
2023-01-29T10:15:05.155Z,7.25
2023-01-29T10:17:47.817Z,7.29
2023-01-29T10:20:34.180Z,7.32
2023-01-29T10:23:06.692Z,7.34
2023-01-29T10:25:39.383Z,7.34
2023-01-29T10:28:17.836Z,7.33
2023-01-29T10:30:49.236Z,7.38
2023-01-29T10:37:42.870Z,7.43
2023-01-29T10:40:20.288Z,7.45
2023-01-29T10:42:56.593Z,7.50
2023-01-29T10:45:48.924Z,7.54
2023-01-29T10:48:35.174Z,7.54
2023-01-29T10:51:08.487Z,7.53
2023-01-29T10:54:06.727Z,7.52
2023-01-29T10:56:57.513Z,7.53
2023-01-29T10:59:34.584Z,7.56
2023-01-29T11:02:03.481Z,7.57
2023-01-29T11:04:32.568Z,7.60
2023-01-29T11:07:00.379Z,7.61
2023-01-29T11:09:40.075Z,7.66
2023-01-29T11:12:13.373Z,7.69
2023-01-29T11:14:51.816Z,7.72
2023-01-29T11:17:21.146Z,7.73
2023-01-29T11:19:51.244Z,7.76
2023-01-29T11:22:20.800Z,7.79
2023-01-29T11:25:07.053Z,7.84
2023-01-29T11:27:36.571Z,7.89
2023-01-29T11:30:03.442Z,7.94
2023-01-29T11:32:34.577Z,8.00
2023-01-29T11:35:06.321Z,8.04
2023-01-29T11:37:36.437Z,8.10
2023-01-29T11:40:28.630Z,8.14
2023-01-29T11:42:55.207Z,8.16
2023-01-29T11:45:33.949Z,8.18
2023-01-29T11:48:00.651Z,8.18
2023-01-29T11:50:33.032Z,8.15
2023-01-29T11:53:00.361Z,8.13
2023-01-29T11:55:40.947Z,8.13
2023-01-29T11:58:32.748Z,8.14
2023-01-29T12:01:00.979Z,8.17
2023-01-29T12:03:36.393Z,8.21
2023-01-29T12:06:15.197Z,8.23
2023-01-29T12:08:44.699Z,8.24
2023-01-29T12:11:30.328Z,8.26
2023-01-29T12:14:01.245Z,8.29
2023-01-29T12:16:34.426Z,8.32
2023-01-29T12:19:11.755Z,8.34
2023-01-29T12:21:47.957Z,8.34
2023-01-29T12:24:33.166Z,8.34
2023-01-29T12:27:17.005Z,8.36
2023-01-29T12:30:01.015Z,8.39
2023-01-29T12:32:39.421Z,8.41
2023-01-29T12:35:18.200Z,8.42
2023-01-29T12:37:44.844Z,8.44
2023-01-29T12:40:15.264Z,8.46
2023-01-29T12:42:47.564Z,8.49
2023-01-29T12:45:24.957Z,8.52
2023-01-29T12:48:00.749Z,8.52
2023-01-29T12:50:32.584Z,8.51
2023-01-29T12:53:11.584Z,8.54
2023-01-29T12:55:44.826Z,8.56
2023-01-29T12:58:21.631Z,8.58
2023-01-29T13:00:54.724Z,8.58
2023-01-29T13:03:29.790Z,8.60
2023-01-29T13:06:14.932Z,8.64
2023-01-29T13:09:17.292Z,8.69
2023-01-29T13:11:51.421Z,8.75
2023-01-29T13:14:33.071Z,8.78
2023-01-29T13:17:13.074Z,8.80
2023-01-29T13:19:46.873Z,8.80
2023-01-29T13:22:27.300Z,8.79
2023-01-29T13:25:04.298Z,8.77
2023-01-29T13:27:34.458Z,8.75
2023-01-29T13:30:01.718Z,8.76
2023-01-29T13:32:31.226Z,8.77
2023-01-29T13:35:04.875Z,8.76
2023-01-29T13:37:41.033Z,8.77
2023-01-29T13:40:08.967Z,8.77
2023-01-29T13:42:49.253Z,8.76
2023-01-29T13:45:31.524Z,8.73
2023-01-29T13:48:11.071Z,8.71
2023-01-29T13:50:41.780Z,8.70
2023-01-29T13:53:28.363Z,8.69
2023-01-29T13:55:55.438Z,8.68
2023-01-29T13:58:44.640Z,8.66
2023-01-29T14:01:11.392Z,8.67
2023-01-29T14:04:04.162Z,8.67
2023-01-29T14:06:42.366Z,8.70
2023-01-29T14:09:37.087Z,8.70
2023-01-29T14:12:22.155Z,8.68
2023-01-29T14:14:48.939Z,8.62
2023-01-29T14:17:17.186Z,8.60
2023-01-29T14:19:49.737Z,8.63
2023-01-29T14:22:22.802Z,8.64
2023-01-29T14:24:53.705Z,8.63
2023-01-29T14:27:23.022Z,8.63
2023-01-29T14:29:51.817Z,8.63
2023-01-29T14:32:21.429Z,8.63
2023-01-29T14:34:50.510Z,8.62
2023-01-29T14:37:17.146Z,8.62
2023-01-29T14:39:53.418Z,8.60
2023-01-29T14:42:28.960Z,8.60
2023-01-29T14:44:55.689Z,8.60
2023-01-29T14:47:43.501Z,8.59
2023-01-29T14:50:41.691Z,8.57
2023-01-29T14:53:20.104Z,8.54
2023-01-29T14:56:11.130Z,8.53
2023-01-29T14:58:56.217Z,8.50
2023-01-29T15:01:38.601Z,8.49
2023-01-29T15:04:19.458Z,8.47
2023-01-29T15:07:00.041Z,8.42
2023-01-29T15:10:03.841Z,8.38
2023-01-29T15:12:52.209Z,8.37
2023-01-29T15:19:48.126Z,8.23
2023-01-29T15:22:19.802Z,8.20
2023-01-29T15:25:01.854Z,8.18
2023-01-29T15:27:29.100Z,8.19
2023-01-29T15:30:03.108Z,8.18
2023-01-29T15:32:36.073Z,8.17
2023-01-29T15:35:09.215Z,8.14
2023-01-29T15:37:37.207Z,8.11
2023-01-29T15:40:12.200Z,8.09
2023-01-29T15:42:46.596Z,8.08
2023-01-29T15:45:33.754Z,8.06
2023-01-29T15:48:17.381Z,8.03
2023-01-29T15:55:07.308Z,7.93
2023-01-29T15:57:40.486Z,7.90
2023-01-29T16:00:30.208Z,7.87
2023-01-29T16:02:58.110Z,7.83
2023-01-29T16:05:30.257Z,7.80
2023-01-29T16:07:57.928Z,7.76
2023-01-29T16:10:28.367Z,7.71
2023-01-29T16:12:56.044Z,7.66
2023-01-29T16:15:37.995Z,7.62
2023-01-29T16:18:21.236Z,7.58
2023-01-29T16:20:52.816Z,7.54
2023-01-29T16:23:24.812Z,7.50
2023-01-29T16:25:52.068Z,7.47
2023-01-29T16:28:19.367Z,7.42
2023-01-29T16:30:46.196Z,7.40
2023-01-29T16:33:17.453Z,7.36
2023-01-29T16:35:51.313Z,7.34
2023-01-29T16:38:31.664Z,7.29
2023-01-29T16:41:15.482Z,7.25
2023-01-29T16:43:48.521Z,7.19
2023-01-29T16:46:38.610Z,7.13
2023-01-29T16:49:31.016Z,7.03
2023-01-29T16:52:17.708Z,6.91
2023-01-29T16:54:44.749Z,6.83
2023-01-29T16:57:16.768Z,6.78
2023-01-29T16:59:44.263Z,6.72
2023-01-29T17:02:37.897Z,6.65
2023-01-29T17:05:20.932Z,6.57
2023-01-29T17:07:47.781Z,6.49
2023-01-29T17:10:24.496Z,6.41
2023-01-29T17:12:58.287Z,6.33
2023-01-29T17:15:48.265Z,6.24
2023-01-29T17:18:23.894Z,6.17
2023-01-29T17:20:53.124Z,6.11
2023-01-29T17:23:20.187Z,6.06
2023-01-29T17:25:48.002Z,6.01
2023-01-29T17:28:17.564Z,5.96
2023-01-29T17:30:50.669Z,5.89
2023-01-29T17:33:22.823Z,5.82
2023-01-29T17:35:50.428Z,5.75
2023-01-29T17:38:26.088Z,5.73
2023-01-29T17:41:00.762Z,5.71
2023-01-29T17:43:27.401Z,5.70
2023-01-29T17:45:54.096Z,5.68
2023-01-29T17:48:28.958Z,5.64
2023-01-29T17:50:58.972Z,5.61
2023-01-29T17:53:30.501Z,5.61
2023-01-29T17:56:03.104Z,5.60
2023-01-29T17:58:29.658Z,5.57
2023-01-29T18:00:56.327Z,5.53
2023-01-29T18:03:23.225Z,5.52
2023-01-29T18:05:50.321Z,5.51
2023-01-29T18:08:35.509Z,5.49
2023-01-29T18:11:02.180Z,5.45
2023-01-29T18:13:28.956Z,5.40
2023-01-29T18:15:55.754Z,5.35
2023-01-29T18:18:24.654Z,5.31
2023-01-29T18:20:51.390Z,5.28
2023-01-29T18:23:18.151Z,5.26
2023-01-29T18:25:44.892Z,5.23
2023-01-29T18:32:05.654Z,5.11
2023-01-29T18:34:32.400Z,5.08
2023-01-29T18:37:00.348Z,5.06
2023-01-29T18:39:27.014Z,5.03
2023-01-29T18:41:53.569Z,4.99
2023-01-29T18:44:20.243Z,4.95
2023-01-29T18:46:46.921Z,4.93
2023-01-29T18:49:13.639Z,4.91
2023-01-29T18:51:40.284Z,4.90
2023-01-29T18:54:06.882Z,4.91
2023-01-29T18:56:33.652Z,4.94
2023-01-29T18:59:00.214Z,4.98
2023-01-29T19:01:27.458Z,4.97
2023-01-29T19:03:54.252Z,4.97
2023-01-29T19:06:20.807Z,4.96
2023-01-29T19:08:48.172Z,4.93
2023-01-29T19:11:14.985Z,4.90
2023-01-29T19:13:42.935Z,4.88
2023-01-29T19:16:12.037Z,4.90
2023-01-29T19:18:39.199Z,4.91
2023-01-29T19:21:10.831Z,4.92
2023-01-29T19:23:37.742Z,4.91
2023-01-29T19:26:04.713Z,4.86
2023-01-29T19:28:31.567Z,4.82
2023-01-29T19:30:59.456Z,4.80
2023-01-29T19:33:27.804Z,4.80
2023-01-29T19:35:58.934Z,4.79
2023-01-29T19:38:26.169Z,4.76
2023-01-29T19:40:55.154Z,4.72
2023-01-29T19:43:22.257Z,4.70
2023-01-29T19:45:50.967Z,4.67
2023-01-29T19:48:21.921Z,4.66
2023-01-29T19:51:09.913Z,4.65
2023-01-29T19:53:39.219Z,4.67
2023-01-29T19:56:08.890Z,4.73
2023-01-29T19:58:36.645Z,4.82
2023-01-29T20:01:13.004Z,4.90
2023-01-29T20:03:42.154Z,4.95
2023-01-29T20:06:09.444Z,4.99
2023-01-29T20:08:37.642Z,5.00
2023-01-29T20:11:05.693Z,5.02
2023-01-29T20:13:33.446Z,5.02
2023-01-29T20:16:04.028Z,5.00
2023-01-29T20:18:31.421Z,5.01
2023-01-29T20:20:59.326Z,4.95
2023-01-29T20:23:37.215Z,4.91
2023-01-29T20:26:05.736Z,4.89
2023-01-29T20:28:32.469Z,4.87
2023-01-29T20:30:59.192Z,4.86
2023-01-29T20:33:27.182Z,4.86
2023-01-29T20:35:59.479Z,4.92
2023-01-29T20:38:31.801Z,4.91
2023-01-29T20:41:14.008Z,4.91
2023-01-29T20:43:41.673Z,4.89
2023-01-29T20:46:09.280Z,4.88
2023-01-29T20:48:36.386Z,4.85
2023-01-29T20:51:09.917Z,4.81
2023-01-29T20:53:37.551Z,4.77
2023-01-29T20:56:05.255Z,4.72
2023-01-29T20:58:32.798Z,4.72
2023-01-29T21:00:59.951Z,4.72
2023-01-29T21:03:26.826Z,4.73
2023-01-29T21:05:54.459Z,4.75
2023-01-29T21:08:21.373Z,4.78
2023-01-29T21:10:49.783Z,4.81
2023-01-29T21:13:16.516Z,4.86
2023-01-29T21:15:44.389Z,4.86
2023-01-29T21:18:11.596Z,4.85
2023-01-29T21:20:38.349Z,4.81
2023-01-29T21:23:07.089Z,4.78
2023-01-29T21:25:34.296Z,4.75
2023-01-29T21:28:01.068Z,4.70
2023-01-29T21:30:27.778Z,4.65
2023-01-29T21:32:54.551Z,4.61
2023-01-29T21:35:21.227Z,4.58
2023-01-29T21:37:48.423Z,4.53
2023-01-29T21:40:15.327Z,4.50
2023-01-29T21:43:00.741Z,4.47
2023-01-29T21:45:27.564Z,4.43
2023-01-29T21:47:54.417Z,4.40
2023-01-29T21:50:21.045Z,4.37
2023-01-29T21:52:47.824Z,4.33
2023-01-29T21:55:15.744Z,4.32
2023-01-29T21:57:43.110Z,4.29
2023-01-29T22:00:12.124Z,4.20
2023-01-29T22:02:39.311Z,4.16
2023-01-29T22:05:18.889Z,4.19
2023-01-29T22:07:49.960Z,4.23
2023-01-29T22:10:18.054Z,4.25
2023-01-29T22:12:45.120Z,4.28
2023-01-29T22:15:12.719Z,4.28
2023-01-29T22:17:41.390Z,4.27
2023-01-29T22:20:10.111Z,4.26
2023-01-29T22:22:36.799Z,4.25
2023-01-29T22:25:04.049Z,4.20
2023-01-29T22:27:33.358Z,4.14
2023-01-29T22:30:00.386Z,4.08
2023-01-29T22:32:27.454Z,4.03
2023-01-29T22:34:54.212Z,3.99
2023-01-29T22:37:20.805Z,4.00
2023-01-29T22:43:54.356Z,3.99
2023-01-29T22:46:20.930Z,3.97
2023-01-29T22:48:47.704Z,3.93
2023-01-29T22:51:14.328Z,3.86
2023-01-29T22:53:44.283Z,3.77
2023-01-29T22:56:11.686Z,3.69
2023-01-29T22:58:38.423Z,3.64
2023-01-29T23:01:05.066Z,3.59
2023-01-29T23:03:31.695Z,3.55
2023-01-29T23:05:58.453Z,3.52
2023-01-29T23:08:25.062Z,3.50
2023-01-29T23:10:51.712Z,3.46
2023-01-29T23:13:18.474Z,3.48
2023-01-29T23:15:45.291Z,3.52
2023-01-29T23:18:12.168Z,3.56
2023-01-29T23:20:38.842Z,3.59
2023-01-29T23:23:05.532Z,3.63
2023-01-29T23:25:50.807Z,3.64
2023-01-29T23:28:17.425Z,3.62
2023-01-29T23:30:45.413Z,3.60
2023-01-29T23:33:12.393Z,3.58
2023-01-29T23:35:38.958Z,3.57
2023-01-29T23:38:05.587Z,3.50
2023-01-29T23:40:32.251Z,3.47
2023-01-29T23:42:58.839Z,3.42
2023-01-29T23:45:25.444Z,3.36
2023-01-29T23:47:52.085Z,3.32
2023-01-29T23:50:19.175Z,3.28
2023-01-29T23:52:46.175Z,3.26
2023-01-29T23:55:12.782Z,3.24
2023-01-29T23:57:39.460Z,3.19
